Terminal Aerodrome Forecast
Issued by NWS

Current Version | Previous Version | Text Only | Print | Product List | Glossary On
Versions: 1 2 3 4 5 6 7 8 9 10 11 12 13 14
000
FTUS42 KMLB 232327
TAFLEE
TAF
KLEE 232327Z 2400/2424 06013KT P6SM SCT040
     FM240400 07005KT P6SM SKC
     FM241400 12010KT P6SM FEW040
     FM241900 11013G20KT P6SM SCT040 BKN060=

USA.gov is the U.S. government's official web portal to all federal, state and local government web resources and services.